Pular para o conteúdo principal

Postagens

Mostrando postagens de Outubro 12, 2010

OPORTUNIDADE DE EMPREGO NA AVIAÇÃO AGRÍCOLA

Precisa-se de piloto agrícola devidamente habilitado, com experiência mínima de 3 safras, disponibilidade imediata (out/2010), para voar um Ipanema em lavoura de arroz no RS. Garantimos no mínimo 8.000 hectares, retiradas mensal a combinar, oferecemos instalações e alimentação. Os interessados deverão enviar currículo para o e-mail: agricolars@gmail.com
fonte/Aviação.Com

OITO MORTOS EM QUEDA DE AVIÃO DE CARGA PERTO DE CABUL

CABUL, 12 Out 2010 (AFP) -Oito pessoas morreram na queda de um avião de carga civil da companhia aérea privada afegã Kam Air,um Transafrik International Hercules L-100 (versão civil do C-130), voo MUA-662, que transportava mercadoria para a Otan nas montanhas próximas a Cabul, anunciou o porta-voz do ministério afegão do Transporte e da Aviação Civil.
"Havia oito membros da tripulação a bordo. Todos estão mortos", declarou Nanyalai Qalatwal. Metars:
OAKB 121650Z 33003KT 5000 HZ NSC 16/07 Q1020 TEMPO 4000 RMK WHT GRN
OAKB 121550Z VRB01KT 5000 HZ NSC 17/07 Q1020 TEMPO 4000 RMK WHT GRN
OAKB 121450Z 08004KT 5000 HZ NSC 18/06 Q1019 TEMPO 4000 RMK WHT GRN
OAKB 121422Z 01002KT 6000 NSC 18/05 Q1019 NOSIG RMK WHT WHT
OAKB 121400Z 01002KT 6000 NSC 18/05 Q1019 NOSIG RMK WHT WHT "O avião pertence a uma companhia africana e realizava o trajeto Bagram-Kabul e caiu nas montanhas perto de Cabul", acrescentou.
O diretor do aeroporto de Cabul informou que seis dos oito tripulant…

RADAR AÉREO NA EUROPA

O site http://casper.frontier.nl/ apresenta as aeronaves voando nos cús da Europa. Atualmente estão disponíveis mais de 10 aeroportos e em breve toda Europa estará coberta.



Voce verá todo os movimentos da aeronave, foto colorida de cada aeronave para que voce possa reconhecer facilmente cada companhia aérea e seu trajeto rever até quatro horas após o término do voo, alé de rever os voos cem vezes mais rápido que o tempo real, ou seguir o seu amigo que acabou de sair de férias.

fonte/NasaCiencia


DICA DE LIVRO - LENDAS URBANAS

O autor tem um dos melhores blogs de notícias sobre aviação http://desastresaereosnews.blogspot.com/

Sinopse
Você certamente já ouviu falar na lenda do homem do saco, que pega crianças quando estão sozinhas, ou naquela bela loira que vive aterrorizando as pessoas em alguns banheiros pela cidade. Quantas outras você conhece? São inúmeras as lendas urbanas, essas istórias que assustam e divertem. 
O livro reúne dez dessas histórias escabrosas. O trabalho de pesquisa e adaptação foi feito por um verdadeiro especialista. Jorge Tadeu é o responsável por divulgar essas mesmas histórias no quadro "Lendas Urbanas", do programa "Domingo Legal" no SBT, um dos que alcançam maior audiência do programa.

DORNIER 228 SAI DA PISTA EM LUKA, NEPAL

Um DORNIER 228-200K, da SITA AIR, matrícula AHB, voando de Kathmandu para Luka, com 11 passageiros e 3 tripulante, saíu da pista de 537 metros ao pousar e colidiu com um muro. Não houve feridos e a aeronave sofreu pequenos danos na fuselagem. Tripulantes informaram que os freios falharam durante o pouso.
fonte/AvHerald